createdAt,value
2019-05-17T00:00:57.300Z,1009.47
2019-05-17T00:01:57.662Z,1009.45
2019-05-17T00:02:57.116Z,1009.43
2019-05-17T00:03:56.467Z,1009.47
2019-05-17T00:04:56.325Z,1009.42
2019-05-17T00:05:56.978Z,1009.44
2019-05-17T00:06:56.985Z,1009.44
2019-05-17T00:07:56.652Z,1009.38
2019-05-17T00:08:56.400Z,1009.33
2019-05-17T00:09:57.075Z,1009.34
2019-05-17T00:11:56.790Z,1009.3
2019-05-17T00:12:56.358Z,1009.31
2019-05-17T00:13:56.987Z,1009.28
2019-05-17T00:14:56.278Z,1009.28
2019-05-17T00:15:56.559Z,1009.3
2019-05-17T00:16:57.252Z,1009.29
2019-05-17T00:17:57.050Z,1009.29
2019-05-17T00:18:56.775Z,1009.31
2019-05-17T00:19:56.794Z,1009.26
2019-05-17T00:20:56.923Z,1009.25
2019-05-17T00:21:56.626Z,1009.23
2019-05-17T00:22:57.328Z,1009.22
2019-05-17T00:23:57.195Z,1009.22
2019-05-17T00:24:56.787Z,1009.19
2019-05-17T00:25:56.430Z,1009.18
2019-05-17T00:27:56.359Z,1009.14
2019-05-17T00:28:56.316Z,1009.08
2019-05-17T00:29:57.075Z,1009.06
2019-05-17T00:30:57.093Z,1009.08
2019-05-17T00:31:56.812Z,1009.03
2019-05-17T00:32:56.865Z,1009
2019-05-17T00:33:56.560Z,1009.02
2019-05-17T00:34:56.413Z,1009.02
2019-05-17T00:35:56.310Z,1008.99
2019-05-17T00:36:57.359Z,1009.02
2019-05-17T00:37:57.043Z,1008.98
2019-05-17T00:38:56.737Z,1008.99
2019-05-17T00:39:56.644Z,1008.96
2019-05-17T00:40:56.522Z,1009.01
2019-05-17T00:41:57.260Z,1009
2019-05-17T00:43:56.894Z,1008.95
2019-05-17T00:44:56.616Z,1008.93
2019-05-17T00:45:57.420Z,1008.94
2019-05-17T00:46:58.770Z,1008.93
2019-05-17T00:47:57.221Z,1008.94
2019-05-17T00:48:57.260Z,1008.9
2019-05-17T00:49:56.972Z,1008.93
2019-05-17T00:51:01.840Z,1008.92
2019-05-17T00:51:56.779Z,1008.93
2019-05-17T00:52:56.659Z,1008.9
2019-05-17T00:53:56.411Z,1008.95
2019-05-17T00:54:56.427Z,1008.97
2019-05-17T00:55:57.280Z,1008.93
2019-05-17T00:56:56.745Z,1008.94
2019-05-17T00:57:56.605Z,1008.93
2019-05-17T00:59:56.631Z,1008.94
2019-05-17T01:00:57.163Z,1008.9
2019-05-17T01:01:56.554Z,1008.88
2019-05-17T01:02:57.297Z,1008.9
2019-05-17T01:03:57.095Z,1008.93
2019-05-17T01:04:56.884Z,1008.95
2019-05-17T01:05:56.824Z,1008.99
2019-05-17T01:06:56.643Z,1008.96
2019-05-17T01:07:57.283Z,1008.93
2019-05-17T01:09:01.487Z,1008.93
2019-05-17T01:09:56.758Z,1008.95
2019-05-17T01:10:56.757Z,1008.93
2019-05-17T01:11:56.775Z,1008.92
2019-05-17T01:12:57.493Z,1008.92
2019-05-17T01:14:58.239Z,1008.85
2019-05-17T01:15:56.835Z,1008.87
2019-05-17T01:16:56.825Z,1008.88
2019-05-17T01:17:56.862Z,1008.87
2019-05-17T01:18:57.301Z,1008.87
2019-05-17T01:19:57.330Z,1008.87
2019-05-17T01:20:56.960Z,1008.85
2019-05-17T01:21:56.971Z,1008.87
2019-05-17T01:22:56.931Z,1008.86
2019-05-17T01:23:56.950Z,1008.86
2019-05-17T01:24:57.088Z,1008.89
2019-05-17T01:25:56.985Z,1008.88
2019-05-17T01:26:57.435Z,1008.93
2019-05-17T01:27:57.020Z,1008.89
2019-05-17T01:28:57.371Z,1008.91
2019-05-17T01:29:57.325Z,1008.92
2019-05-17T01:30:57.124Z,1008.95
2019-05-17T01:31:57.219Z,1008.95
2019-05-17T01:32:57.170Z,1008.93
2019-05-17T01:33:57.128Z,1008.94
2019-05-17T01:34:57.145Z,1008.89
2019-05-17T01:35:57.393Z,1008.93
2019-05-17T01:36:57.181Z,1008.85
2019-05-17T01:37:57.198Z,1008.83
2019-05-17T01:38:57.698Z,1008.87
2019-05-17T01:39:57.467Z,1008.91
2019-05-17T01:40:57.253Z,1008.91
2019-05-17T01:41:57.444Z,1008.94
2019-05-17T01:42:58.130Z,1008.93
2019-05-17T01:43:57.306Z,1008.88
2019-05-17T01:44:57.323Z,1008.92
2019-05-17T01:46:57.359Z,1008.94
2019-05-17T01:47:57.377Z,1008.88
2019-05-17T01:48:57.800Z,1008.91
2019-05-17T01:49:57.657Z,1008.9
2019-05-17T01:50:57.434Z,1008.88
2019-05-17T01:51:57.452Z,1008.86
2019-05-17T01:52:57.471Z,1008.82
2019-05-17T01:53:57.508Z,1008.82
2019-05-17T01:54:57.502Z,1008.83
2019-05-17T01:55:57.519Z,1008.81
2019-05-17T01:56:57.537Z,1008.81
2019-05-17T01:57:57.555Z,1008.81
2019-05-17T01:58:57.664Z,1008.77
2019-05-17T01:59:57.594Z,1008.8
2019-05-17T02:00:57.609Z,1008.81
2019-05-17T02:02:57.861Z,1008.8
2019-05-17T02:03:57.662Z,1008.85
2019-05-17T02:04:57.680Z,1008.81
2019-05-17T02:05:57.698Z,1008.85
2019-05-17T02:06:57.715Z,1008.81
2019-05-17T02:07:57.733Z,1008.83
2019-05-17T02:08:57.760Z,1008.81
2019-05-17T02:09:57.770Z,1008.78
2019-05-17T02:10:57.786Z,1008.78
2019-05-17T02:11:57.810Z,1008.75
2019-05-17T02:12:57.821Z,1008.77
2019-05-17T02:13:57.842Z,1008.75
2019-05-17T02:14:57.858Z,1008.72
2019-05-17T02:15:57.875Z,1008.74
2019-05-17T02:16:57.897Z,1008.74
2019-05-17T02:18:57.929Z,1008.72
2019-05-17T02:19:57.947Z,1008.71
2019-05-17T02:20:57.965Z,1008.65
2019-05-17T02:21:57.985Z,1008.72
2019-05-17T02:22:57.999Z,1008.72
2019-05-17T02:23:58.017Z,1008.72
2019-05-17T02:24:58.036Z,1008.75
2019-05-17T02:25:58.053Z,1008.7
2019-05-17T02:26:58.071Z,1008.76
2019-05-17T02:27:58.091Z,1008.75
2019-05-17T02:28:58.106Z,1008.81
2019-05-17T02:29:58.124Z,1008.82
2019-05-17T02:30:58.144Z,1008.8
2019-05-17T02:31:58.160Z,1008.84
2019-05-17T02:32:58.177Z,1008.8
2019-05-17T02:34:58.215Z,1008.78
2019-05-17T02:35:58.236Z,1008.78
2019-05-17T02:36:58.250Z,1008.78
2019-05-17T02:37:58.266Z,1008.72
2019-05-17T02:38:58.285Z,1008.71
2019-05-17T02:40:04.337Z,1008.71
2019-05-17T02:40:58.324Z,1008.72
2019-05-17T02:41:58.338Z,1008.7
2019-05-17T02:42:58.357Z,1008.71
2019-05-17T02:43:58.374Z,1008.73
2019-05-17T02:44:58.392Z,1008.71
2019-05-17T02:45:58.409Z,1008.75
2019-05-17T02:46:58.428Z,1008.74
2019-05-17T02:47:58.445Z,1008.76
2019-05-17T02:49:58.482Z,1008.73
2019-05-17T02:50:58.499Z,1008.76
2019-05-17T02:51:58.517Z,1008.77
2019-05-17T02:52:58.535Z,1008.76
2019-05-17T02:53:58.552Z,1008.76
2019-05-17T02:54:58.570Z,1008.79
2019-05-17T02:55:58.588Z,1008.75
2019-05-17T02:56:58.613Z,1008.77
2019-05-17T02:57:58.625Z,1008.75
2019-05-17T02:58:58.640Z,1008.79
2019-05-17T02:59:58.659Z,1008.72
2019-05-17T03:00:58.677Z,1008.73
2019-05-17T03:01:58.693Z,1008.71
2019-05-17T03:02:58.711Z,1008.72
2019-05-17T03:03:58.730Z,1008.68
2019-05-17T03:04:58.749Z,1008.71
2019-05-17T03:05:58.764Z,1008.71
2019-05-17T03:06:58.788Z,1008.67
2019-05-17T03:07:58.803Z,1008.68
2019-05-17T03:08:58.817Z,1008.62
2019-05-17T03:10:13.432Z,1008.67
2019-05-17T03:10:58.852Z,1008.64
2019-05-17T03:11:58.873Z,1008.63
2019-05-17T03:12:58.887Z,1008.62
2019-05-17T03:13:58.906Z,1008.65
2019-05-17T03:14:58.924Z,1008.67
2019-05-17T03:15:58.941Z,1008.68
2019-05-17T03:16:58.959Z,1008.67
2019-05-17T03:17:58.976Z,1008.72
2019-05-17T03:18:58.998Z,1008.72
2019-05-17T03:19:59.012Z,1008.78
2019-05-17T03:22:02.706Z,1008.73
2019-05-17T03:22:59.064Z,1008.76
2019-05-17T03:23:59.082Z,1008.74
2019-05-17T03:25:02.853Z,1008.77
2019-05-17T03:25:59.117Z,1008.73
2019-05-17T03:26:59.135Z,1008.7
2019-05-17T03:27:59.151Z,1008.69
2019-05-17T03:28:59.170Z,1008.71
2019-05-17T03:30:03.713Z,1008.65
2019-05-17T03:30:59.204Z,1008.65
2019-05-17T03:32:00.708Z,1008.64
2019-05-17T03:32:59.247Z,1008.63
2019-05-17T03:33:59.258Z,1008.64
2019-05-17T03:34:59.281Z,1008.65
2019-05-17T03:36:04.510Z,1008.67
2019-05-17T03:37:59.329Z,1008.75
2019-05-17T03:39:02.848Z,1008.71
2019-05-17T03:40:02.685Z,1008.72
2019-05-17T03:41:29.680Z,1008.73
2019-05-17T03:42:29.129Z,1008.72
2019-05-17T03:43:29.146Z,1008.72
2019-05-17T03:44:29.162Z,1008.68
2019-05-17T03:45:29.181Z,1008.66
2019-05-17T03:47:29.219Z,1008.64
2019-05-17T03:48:29.234Z,1008.63
2019-05-17T03:49:29.252Z,1008.65
2019-05-17T03:50:29.269Z,1008.65
2019-05-17T03:51:29.286Z,1008.65
2019-05-17T03:52:29.304Z,1008.66
2019-05-17T03:53:29.322Z,1008.65
2019-05-17T03:54:32.243Z,1008.66
2019-05-17T03:55:32.771Z,1008.65
2019-05-17T03:56:29.375Z,1008.68
2019-05-17T03:57:32.102Z,1008.69
2019-05-17T03:58:32.989Z,1008.68
2019-05-17T03:59:29.427Z,1008.63
2019-05-17T04:00:29.445Z,1008.67
2019-05-17T04:01:32.575Z,1008.7
2019-05-17T04:03:32.174Z,1008.69
2019-05-17T04:04:29.516Z,1008.65
2019-05-17T04:05:33.059Z,1008.63
2019-05-17T04:06:32.625Z,1008.65
2019-05-17T04:07:32.701Z,1008.63
2019-05-17T04:08:29.586Z,1008.64
2019-05-17T04:09:32.654Z,1008.61
2019-05-17T04:10:32.986Z,1008.61
2019-05-17T04:11:32.600Z,1008.57
2019-05-17T04:12:32.562Z,1008.59
2019-05-17T04:13:29.676Z,1008.6
2019-05-17T04:14:33.303Z,1008.52
2019-05-17T04:15:32.749Z,1008.54
2019-05-17T04:16:29.730Z,1008.55
2019-05-17T04:17:32.525Z,1008.54
2019-05-17T04:19:29.783Z,1008.55
2019-05-17T04:20:32.811Z,1008.54
2019-05-17T04:21:29.820Z,1008.47
2019-05-17T04:22:32.818Z,1008.55
2019-05-17T04:23:29.860Z,1008.54
2019-05-17T04:24:32.319Z,1008.5
2019-05-17T04:25:33.062Z,1008.53
2019-05-17T04:26:32.508Z,1008.52
2019-05-17T04:27:32.434Z,1008.53
2019-05-17T04:28:33.232Z,1008.52
2019-05-17T04:29:32.837Z,1008.5
2019-05-17T04:30:32.579Z,1008.48
2019-05-17T04:31:33.913Z,1008.47
2019-05-17T04:32:32.903Z,1008.47
2019-05-17T04:34:33.216Z,1008.45
2019-05-17T04:35:32.700Z,1008.45
2019-05-17T04:36:32.246Z,1008.44
2019-05-17T04:37:33.339Z,1008.44
2019-05-17T04:38:33.016Z,1008.43
2019-05-17T04:39:32.492Z,1008.42
2019-05-17T04:40:33.541Z,1008.44
2019-05-17T04:41:41.086Z,1008.43
2019-05-17T04:42:32.872Z,1008.41
2019-05-17T04:43:33.165Z,1008.41
2019-05-17T04:44:32.200Z,1008.41
2019-05-17T04:45:33.162Z,1008.41
2019-05-17T04:46:32.562Z,1008.46
2019-05-17T04:47:33.031Z,1008.42
2019-05-17T04:48:32.587Z,1008.42
2019-05-17T04:49:33.025Z,1008.43
2019-05-17T04:50:33.238Z,1008.44
2019-05-17T04:51:32.206Z,1008.45
2019-05-17T04:52:33.314Z,1008.42
2019-05-17T04:53:32.725Z,1008.48
2019-05-17T04:54:33.318Z,1008.46
2019-05-17T04:55:33.760Z,1008.44
2019-05-17T04:56:32.964Z,1008.44
2019-05-17T04:57:32.482Z,1008.52
2019-05-17T04:58:33.069Z,1008.47
2019-05-17T04:59:33.696Z,1008.54
2019-05-17T05:00:33.527Z,1008.49
2019-05-17T05:01:32.908Z,1008.49
2019-05-17T05:02:32.933Z,1008.48
2019-05-17T05:03:32.551Z,1008.49
2019-05-17T05:04:33.357Z,1008.54
2019-05-17T05:06:32.763Z,1008.51
2019-05-17T05:07:33.305Z,1008.49
2019-05-17T05:08:32.972Z,1008.47
2019-05-17T05:09:32.249Z,1008.47
2019-05-17T05:10:33.269Z,1008.47
2019-05-17T05:11:32.770Z,1008.43
2019-05-17T05:12:33.430Z,1008.46
2019-05-17T05:13:33.254Z,1008.43
2019-05-17T05:14:32.790Z,1008.41
2019-05-17T05:15:32.194Z,1008.43
2019-05-17T05:16:31.999Z,1008.45
2019-05-17T05:17:32.826Z,1008.48
2019-05-17T05:18:32.647Z,1008.48
2019-05-17T05:19:32.884Z,1008.52
2019-05-17T05:20:32.541Z,1008.53
2019-05-17T05:22:32.940Z,1008.51
2019-05-17T05:23:31.835Z,1008.52
2019-05-17T05:24:31.505Z,1008.48
2019-05-17T05:25:32.282Z,1008.46
2019-05-17T05:26:31.731Z,1008.45
2019-05-17T05:27:31.592Z,1008.46
2019-05-17T05:28:31.695Z,1008.48
2019-05-17T05:29:32.121Z,1008.49
2019-05-17T05:30:31.982Z,1008.45
2019-05-17T05:31:32.112Z,1008.45
2019-05-17T05:32:31.513Z,1008.46
2019-05-17T05:33:32.985Z,1008.47
2019-05-17T05:34:32.183Z,1008.49
2019-05-17T05:35:31.751Z,1008.45
2019-05-17T05:36:32.754Z,1008.46
2019-05-17T05:38:31.949Z,1008.45
2019-05-17T05:39:31.926Z,1008.47
2019-05-17T05:40:32.012Z,1008.51
2019-05-17T05:41:31.972Z,1008.48
2019-05-17T05:42:31.625Z,1008.46
2019-05-17T05:43:32.601Z,1008.46
2019-05-17T05:44:32.027Z,1008.41
2019-05-17T05:45:32.043Z,1008.44
2019-05-17T05:46:31.846Z,1008.43
2019-05-17T05:47:32.318Z,1008.45
2019-05-17T05:48:32.546Z,1008.4
2019-05-17T05:49:32.020Z,1008.39
2019-05-17T05:50:32.320Z,1008.37
2019-05-17T05:51:32.104Z,1008.37
2019-05-17T05:52:32.365Z,1008.37
2019-05-17T05:54:32.039Z,1008.39
2019-05-17T05:55:32.118Z,1008.41
2019-05-17T05:56:32.581Z,1008.4
2019-05-17T05:57:32.169Z,1008.45
2019-05-17T05:58:32.282Z,1008.4
2019-05-17T05:59:34.937Z,1008.44
2019-05-17T06:00:32.978Z,1008.49
2019-05-17T06:01:32.545Z,1008.51
2019-05-17T06:02:32.229Z,1008.53
2019-05-17T06:03:32.172Z,1008.5
2019-05-17T06:04:32.016Z,1008.54
2019-05-17T06:05:32.463Z,1008.55
2019-05-17T06:06:32.242Z,1008.67
2019-05-17T06:07:32.235Z,1008.81
2019-05-17T06:09:32.002Z,1009.17
2019-05-17T06:10:32.477Z,1009.2
2019-05-17T06:11:32.300Z,1009.3
2019-05-17T06:12:32.278Z,1009.44
2019-05-17T06:13:32.644Z,1009.03
2019-05-17T06:14:32.389Z,1008.68
2019-05-17T06:15:32.153Z,1009.18
2019-05-17T06:16:32.290Z,1009.23
2019-05-17T06:17:32.194Z,1009.4
2019-05-17T06:18:32.238Z,1009.4
2019-05-17T06:19:32.246Z,1009.37
2019-05-17T06:20:32.480Z,1009.41
2019-05-17T06:21:32.297Z,1009.4
2019-05-17T06:22:32.325Z,1009.44
2019-05-17T06:23:32.350Z,1009.5
2019-05-17T06:24:32.378Z,1008.74
2019-05-17T06:25:34.010Z,1008.66
2019-05-17T06:26:32.432Z,1009.24
2019-05-17T06:27:32.460Z,1009.3
2019-05-17T06:28:32.486Z,1008.68
2019-05-17T06:29:32.865Z,1008.76
2019-05-17T06:30:32.541Z,1008.82
2019-05-17T06:31:33.256Z,1009.26
2019-05-17T06:32:32.595Z,1009.35
2019-05-17T06:33:34.666Z,1009.35
2019-05-17T06:34:32.957Z,1009.38
2019-05-17T06:35:32.678Z,1009.39
2019-05-17T06:36:32.988Z,1009.44
2019-05-17T06:37:32.735Z,1009.43
2019-05-17T06:38:33.048Z,1009.51
2019-05-17T06:39:33.039Z,1009.5
2019-05-17T06:41:32.878Z,1009.26
2019-05-17T06:42:40.241Z,1009.2
2019-05-17T06:43:32.910Z,1009.16
2019-05-17T06:44:32.938Z,1009.14
2019-05-17T06:45:32.968Z,1009.09
2019-05-17T06:46:32.999Z,1009.1
2019-05-17T06:47:33.027Z,1009.1
2019-05-17T06:48:33.060Z,1009.12
2019-05-17T06:49:33.089Z,1009.11
2019-05-17T06:50:33.118Z,1009.14
2019-05-17T06:51:33.150Z,1009.09
2019-05-17T06:52:33.181Z,1009.09
2019-05-17T06:53:33.211Z,1009.15
2019-05-17T06:54:33.309Z,1009.17
2019-05-17T06:55:33.272Z,1009.13
2019-05-17T06:57:33.335Z,1009.16
2019-05-17T06:58:33.368Z,1009.17
2019-05-17T06:59:33.399Z,1009.18
2019-05-17T07:00:33.429Z,1009.18
2019-05-17T07:01:33.462Z,1009.13
2019-05-17T07:02:36.016Z,1009.14
2019-05-17T07:03:33.525Z,1009.11
2019-05-17T07:04:33.555Z,1009.16
2019-05-17T07:05:33.585Z,1009.08
2019-05-17T07:06:33.618Z,1009.13
2019-05-17T07:07:33.650Z,1009.33
2019-05-17T07:08:33.681Z,1009.8
2019-05-17T07:09:36.014Z,1010.12
2019-05-17T07:10:33.745Z,1010.11
2019-05-17T07:11:33.777Z,1010.06
2019-05-17T07:13:33.842Z,1010.04
2019-05-17T07:14:33.873Z,1009.98
2019-05-17T07:15:43.609Z,1009.99
2019-05-17T07:16:33.937Z,1009.97
2019-05-17T07:17:33.969Z,1009.93
2019-05-17T07:18:34.002Z,1009.87
2019-05-17T07:19:34.037Z,1009.84
2019-05-17T07:20:34.066Z,1009.94
2019-05-17T07:21:34.098Z,1009.97
2019-05-17T07:22:34.131Z,1009.92
2019-05-17T07:23:34.163Z,1009.73
2019-05-17T07:24:34.195Z,1009.38
2019-05-17T07:25:34.228Z,1009.29
2019-05-17T07:26:34.260Z,1009.02
2019-05-17T07:27:41.219Z,1008.92
2019-05-17T07:29:34.357Z,1009.07
2019-05-17T07:30:34.390Z,1009.08
2019-05-17T07:31:34.422Z,1009.64
2019-05-17T07:32:34.463Z,1008.99
2019-05-17T07:33:34.484Z,1009.42
2019-05-17T07:34:34.514Z,1009.4
2019-05-17T07:35:34.547Z,1009.33
2019-05-17T07:36:34.578Z,1009.33
2019-05-17T07:37:34.611Z,1009.32
2019-05-17T07:38:34.640Z,1009.25
2019-05-17T07:39:34.674Z,1009.21
2019-05-17T07:40:34.704Z,1009.21
2019-05-17T07:41:34.736Z,1009.25
2019-05-17T07:42:34.767Z,1009.13
2019-05-17T07:44:34.832Z,1009.08
2019-05-17T07:45:34.863Z,1009.07
2019-05-17T07:46:34.894Z,1009.05
2019-05-17T07:47:34.926Z,1009
2019-05-17T07:48:34.959Z,1008.94
2019-05-17T07:49:34.990Z,1008.95
2019-05-17T07:50:35.022Z,1008.97
2019-05-17T07:51:35.054Z,1008.9
2019-05-17T07:52:35.086Z,1008.92
2019-05-17T07:53:35.117Z,1008.86
2019-05-17T07:54:35.150Z,1008.83
2019-05-17T07:55:35.182Z,1008.82
2019-05-17T07:56:35.213Z,1008.81
2019-05-17T07:57:35.246Z,1008.78
2019-05-17T07:58:35.278Z,1008.77
2019-05-17T07:59:35.311Z,1008.74
2019-05-17T08:00:35.349Z,1008.76
2019-05-17T08:01:35.374Z,1008.74
2019-05-17T08:02:35.407Z,1008.68
2019-05-17T08:03:35.438Z,1008.62
2019-05-17T08:04:35.475Z,1008.59
2019-05-17T08:05:35.506Z,1008.58
2019-05-17T08:06:35.544Z,1008.51
2019-05-17T08:07:35.568Z,1008.55
2019-05-17T08:08:35.601Z,1008.49
2019-05-17T08:09:35.633Z,1008.45
2019-05-17T08:10:35.666Z,1008.44
2019-05-17T08:11:35.698Z,1008.41
2019-05-17T08:12:35.730Z,1008.41
2019-05-17T08:13:35.770Z,1008.38
2019-05-17T08:14:35.794Z,1008.3
2019-05-17T08:16:35.859Z,1008.27
2019-05-17T08:17:35.892Z,1008.3
2019-05-17T08:18:35.926Z,1008.31
2019-05-17T08:19:35.956Z,1008.24
2019-05-17T08:20:35.993Z,1008.22
2019-05-17T08:21:36.024Z,1008.17
2019-05-17T08:22:36.053Z,1008.1
2019-05-17T08:23:36.086Z,1008.05
2019-05-17T08:24:36.119Z,1007.98
2019-05-17T08:25:49.396Z,1007.91
2019-05-17T08:26:36.183Z,1007.94
2019-05-17T08:27:36.217Z,1007.94
2019-05-17T08:28:36.249Z,1007.93
2019-05-17T08:29:36.283Z,1007.97
2019-05-17T08:30:36.313Z,1008.04
2019-05-17T08:32:36.378Z,1008.07
2019-05-17T08:33:36.410Z,1007.99
2019-05-17T08:34:36.442Z,1007.94
2019-05-17T08:35:36.474Z,1007.86
2019-05-17T08:36:36.505Z,1007.84
2019-05-17T08:37:36.545Z,1007.83
2019-05-17T08:38:36.569Z,1007.81
2019-05-17T08:39:36.601Z,1007.74
2019-05-17T08:40:36.633Z,1007.72
2019-05-17T08:41:36.664Z,1007.72
2019-05-17T08:42:36.697Z,1007.69
2019-05-17T08:43:42.410Z,1007.63
2019-05-17T08:44:36.759Z,1007.63
2019-05-17T08:45:36.791Z,1007.52
2019-05-17T08:46:36.822Z,1007.42
2019-05-17T08:48:36.884Z,1007.45
2019-05-17T08:49:36.915Z,1007.46
2019-05-17T08:50:36.948Z,1007.5
2019-05-17T08:51:39.483Z,1007.5
2019-05-17T08:52:37.009Z,1007.47
2019-05-17T08:53:37.042Z,1007.5
2019-05-17T08:54:40.135Z,1007.49
2019-05-17T08:55:37.103Z,1007.44
2019-05-17T08:56:37.137Z,1007.43
2019-05-17T08:57:39.633Z,1007.41
2019-05-17T08:58:37.197Z,1007.4
2019-05-17T08:59:37.231Z,1007.4
2019-05-17T09:00:40.136Z,1007.37
2019-05-17T09:01:39.096Z,1007.38
2019-05-17T09:02:37.327Z,1007.41
2019-05-17T09:04:37.385Z,1007.42
2019-05-17T09:05:37.417Z,1007.45
2019-05-17T09:06:39.556Z,1007.41
2019-05-17T09:07:39.833Z,1007.41
2019-05-17T09:08:37.514Z,1007.39
2019-05-17T09:09:39.427Z,1007.36
2019-05-17T09:10:37.571Z,1007.45
2019-05-17T09:11:39.511Z,1007.45
2019-05-17T09:12:37.637Z,1007.42
2019-05-17T09:13:39.920Z,1007.42
2019-05-17T09:14:39.961Z,1007.46
2019-05-17T09:15:39.745Z,1007.44
2019-05-17T09:16:40.058Z,1007.46
2019-05-17T09:17:39.572Z,1007.41
2019-05-17T09:19:39.453Z,1007.45
2019-05-17T09:20:40.225Z,1007.39
2019-05-17T09:21:39.691Z,1007.43
2019-05-17T09:22:39.558Z,1007.45
2019-05-17T09:23:39.608Z,1007.47
2019-05-17T09:24:39.606Z,1007.45
2019-05-17T09:25:39.674Z,1007.47
2019-05-17T09:26:39.880Z,1007.45
2019-05-17T09:27:39.636Z,1007.34
2019-05-17T09:28:39.351Z,1007.39
2019-05-17T09:29:40.185Z,1007.31
2019-05-17T09:30:40.402Z,1007.28
2019-05-17T09:31:40.247Z,1007.28
2019-05-17T09:32:40.341Z,1007.25
2019-05-17T09:33:40.412Z,1007.25
2019-05-17T09:34:40.254Z,1007.23
2019-05-17T09:35:40.661Z,1007.16
2019-05-17T09:36:40.617Z,1007.16
2019-05-17T09:37:40.967Z,1007.11
2019-05-17T09:38:40.329Z,1007.11
2019-05-17T09:39:40.099Z,1007.06
2019-05-17T09:40:40.118Z,1007.08
2019-05-17T09:41:39.714Z,1007.08
2019-05-17T09:42:41.061Z,1007.06
2019-05-17T09:43:40.210Z,1007.05
2019-05-17T09:44:40.380Z,1007.03
2019-05-17T09:45:40.287Z,1007.01
2019-05-17T09:46:39.533Z,1007.03
2019-05-17T09:47:39.638Z,1007.04
2019-05-17T09:48:39.626Z,1006.98
2019-05-17T09:49:39.425Z,1006.98
2019-05-17T09:51:39.583Z,1006.93
2019-05-17T09:52:40.484Z,1006.97
2019-05-17T09:53:40.047Z,1006.96
2019-05-17T09:54:44.777Z,1006.98
2019-05-17T09:55:39.669Z,1006.97
2019-05-17T09:56:39.434Z,1006.94
2019-05-17T09:57:40.762Z,1006.98
2019-05-17T09:58:39.632Z,1006.93
2019-05-17T09:59:40.469Z,1006.96
2019-05-17T10:00:39.043Z,1007
2019-05-17T10:01:39.482Z,1006.99
2019-05-17T10:02:40.119Z,1006.97
2019-05-17T10:03:39.717Z,1006.95
2019-05-17T10:04:39.545Z,1006.91
2019-05-17T10:05:40.525Z,1006.87
2019-05-17T10:07:40.203Z,1006.79
2019-05-17T10:08:39.501Z,1006.79
2019-05-17T10:09:39.964Z,1006.76
2019-05-17T10:10:40.168Z,1006.71
2019-05-17T10:11:39.905Z,1006.77
2019-05-17T10:12:40.269Z,1006.81
2019-05-17T10:13:39.405Z,1006.8
2019-05-17T10:14:39.433Z,1006.81
2019-05-17T10:15:40.784Z,1006.82
2019-05-17T10:16:39.494Z,1006.83
2019-05-17T10:17:39.519Z,1006.81
2019-05-17T10:18:40.061Z,1006.8
2019-05-17T10:19:40.169Z,1006.8
2019-05-17T10:20:40.015Z,1006.8
2019-05-17T10:21:39.990Z,1006.84
2019-05-17T10:23:40.602Z,1006.81
2019-05-17T10:24:42.315Z,1006.82
2019-05-17T10:25:40.099Z,1006.87
2019-05-17T10:26:39.768Z,1006.86
2019-05-17T10:27:40.614Z,1006.81
2019-05-17T10:28:40.116Z,1006.78
2019-05-17T10:29:39.852Z,1006.76
2019-05-17T10:30:40.227Z,1006.78
2019-05-17T10:31:39.982Z,1006.76
2019-05-17T10:32:40.697Z,1006.74
2019-05-17T10:33:40.178Z,1006.72
2019-05-17T10:34:40.161Z,1006.73
2019-05-17T10:35:40.881Z,1006.75
2019-05-17T10:36:40.260Z,1006.74
2019-05-17T10:37:40.862Z,1006.81
2019-05-17T10:39:41.643Z,1006.76
2019-05-17T10:40:40.769Z,1006.76
2019-05-17T10:41:40.715Z,1006.77
2019-05-17T10:42:40.209Z,1006.81
2019-05-17T10:43:40.237Z,1006.77
2019-05-17T10:44:46.519Z,1006.77
2019-05-17T10:45:40.433Z,1006.79
2019-05-17T10:46:40.736Z,1006.74
2019-05-17T10:47:40.346Z,1006.78
2019-05-17T10:48:41.142Z,1006.75
2019-05-17T10:49:40.398Z,1006.78
2019-05-17T10:50:40.845Z,1006.77
2019-05-17T10:51:40.463Z,1006.8
2019-05-17T10:52:41.112Z,1006.81
2019-05-17T10:54:40.533Z,1006.81
2019-05-17T10:55:40.558Z,1006.85
2019-05-17T10:56:40.585Z,1006.86
2019-05-17T10:57:40.615Z,1006.87
2019-05-17T10:58:40.638Z,1006.8
2019-05-17T10:59:40.662Z,1006.81
2019-05-17T11:00:41.466Z,1006.81
2019-05-17T11:01:40.715Z,1006.8
2019-05-17T11:02:40.741Z,1006.8
2019-05-17T11:03:40.768Z,1006.78
2019-05-17T11:04:40.793Z,1006.78
2019-05-17T11:05:40.871Z,1006.77
2019-05-17T11:06:40.844Z,1006.79
2019-05-17T11:07:40.873Z,1006.73
2019-05-17T11:08:40.897Z,1006.74
2019-05-17T11:09:40.924Z,1006.74
2019-05-17T11:10:40.949Z,1006.7
2019-05-17T11:11:40.974Z,1006.7
2019-05-17T11:12:41.000Z,1006.7
2019-05-17T11:13:41.028Z,1006.72
2019-05-17T11:14:50.616Z,1006.73
2019-05-17T11:15:41.077Z,1006.75
2019-05-17T11:16:41.104Z,1006.72
2019-05-17T11:17:41.128Z,1006.71
2019-05-17T11:18:41.154Z,1006.68
2019-05-17T11:19:41.180Z,1006.72
2019-05-17T11:20:41.205Z,1006.72
2019-05-17T11:21:41.231Z,1006.74
2019-05-17T11:22:41.269Z,1006.73
2019-05-17T11:23:41.294Z,1006.74
2019-05-17T11:24:41.307Z,1006.78
2019-05-17T11:26:41.362Z,1006.73
2019-05-17T11:27:41.386Z,1006.71
2019-05-17T11:28:41.409Z,1006.73
2019-05-17T11:29:41.435Z,1006.73
2019-05-17T11:30:41.461Z,1006.72
2019-05-17T11:31:41.486Z,1006.67
2019-05-17T11:32:41.511Z,1006.74
2019-05-17T11:33:41.536Z,1006.72
2019-05-17T11:34:41.563Z,1006.72
2019-05-17T11:35:41.588Z,1006.68
2019-05-17T11:36:41.616Z,1006.69
2019-05-17T11:37:41.641Z,1006.7
2019-05-17T11:38:41.670Z,1006.72
2019-05-17T11:39:41.690Z,1006.72
2019-05-17T11:40:41.717Z,1006.72
2019-05-17T11:42:41.775Z,1006.74
2019-05-17T11:43:41.793Z,1006.68
2019-05-17T11:44:41.824Z,1006.73
2019-05-17T11:45:41.848Z,1006.72
2019-05-17T11:46:41.870Z,1006.71
2019-05-17T11:47:41.896Z,1006.69
2019-05-17T11:48:41.923Z,1006.68
2019-05-17T11:49:41.948Z,1006.69
2019-05-17T11:50:41.973Z,1006.64
2019-05-17T11:51:41.999Z,1006.68
2019-05-17T11:52:42.029Z,1006.65
2019-05-17T11:53:42.051Z,1006.66
2019-05-17T11:54:42.076Z,1006.69
2019-05-17T11:55:42.105Z,1006.66
2019-05-17T11:56:42.130Z,1006.6
2019-05-17T11:58:42.180Z,1006.56
2019-05-17T11:59:42.205Z,1006.55
2019-05-17T12:00:42.246Z,1006.61
2019-05-17T12:01:42.258Z,1006.56
2019-05-17T12:02:42.288Z,1006.58
2019-05-17T12:03:42.310Z,1006.56
2019-05-17T12:04:42.335Z,1006.53
2019-05-17T12:05:42.360Z,1006.56
2019-05-17T12:06:42.387Z,1006.53
2019-05-17T12:07:42.414Z,1006.57
2019-05-17T12:08:42.439Z,1006.55
2019-05-17T12:09:42.464Z,1006.53
2019-05-17T12:10:42.547Z,1006.53
2019-05-17T12:11:42.516Z,1006.52
2019-05-17T12:12:42.541Z,1006.52
2019-05-17T12:14:42.593Z,1006.46
2019-05-17T12:15:45.251Z,1006.43
2019-05-17T12:16:42.643Z,1006.39
2019-05-17T12:17:42.670Z,1006.38
2019-05-17T12:18:42.696Z,1006.4
2019-05-17T12:19:42.722Z,1006.43
2019-05-17T12:20:42.747Z,1006.38
2019-05-17T12:21:42.772Z,1006.41
2019-05-17T12:22:42.798Z,1006.39
2019-05-17T12:23:42.823Z,1006.35
2019-05-17T12:24:42.849Z,1006.35
2019-05-17T12:25:42.874Z,1006.31
2019-05-17T12:26:42.900Z,1006.33
2019-05-17T12:27:42.928Z,1006.34
2019-05-17T12:29:42.979Z,1006.27
2019-05-17T12:30:43.002Z,1006.28
2019-05-17T12:31:43.032Z,1006.29
2019-05-17T12:32:43.053Z,1006.25
2019-05-17T12:33:43.081Z,1006.31
2019-05-17T12:34:43.104Z,1006.28
2019-05-17T12:35:43.129Z,1006.24
2019-05-17T12:36:43.155Z,1006.19
2019-05-17T12:37:43.180Z,1006.22
2019-05-17T12:38:43.206Z,1006.22
2019-05-17T12:39:43.234Z,1006.22
2019-05-17T12:40:43.258Z,1006.17
2019-05-17T12:41:43.285Z,1006.14
2019-05-17T12:42:43.308Z,1006.22
2019-05-17T12:43:43.335Z,1006.23
2019-05-17T12:44:43.368Z,1006.19
2019-05-17T12:45:43.389Z,1006.22
2019-05-17T12:46:43.411Z,1006.24
2019-05-17T12:47:43.441Z,1006.24
2019-05-17T12:48:43.462Z,1006.17
2019-05-17T12:49:43.497Z,1006.26